« Back
NWS Peachtree City, Ga » Text Product » AHN Terminal Aerodrome Forecast


Printer-friendly Version
Current Version              Previous Versions:   1  2  3  4  5  6  7  8  9  

Terminal Aerodrome Forecast

037
FTAK31 PAJN 030500
TAFAHN
TAF
PAHN 030530Z 0306/0406 11006KT P6SM SCT080
     FM030900 31012KT P6SM SKC
     FM031600 VRB05KT P6SM SKC
     FM031900 13007KT P6SM SKC
      AMD LTD TO CLD VIS AND WIND=



USA.gov is the U.S. government's official web portal to all federal, state and local government web resources and services.